sensor_id;sensor_type;location;lat;lon;timestamp;P1;durP1;ratioP1;P2;durP2;ratioP2
1378;SDS011;683;48.738;9.226;2023-04-24T00:00:33;2.40;;;1.07;;
1378;SDS011;683;48.738;9.226;2023-04-24T00:03:02;1.30;;;1.03;;
1378;SDS011;683;48.738;9.226;2023-04-24T00:05:31;3.20;;;1.40;;
1378;SDS011;683;48.738;9.226;2023-04-24T00:07:59;1.60;;;1.30;;
1378;SDS011;683;48.738;9.226;2023-04-24T00:10:26;1.10;;;1.00;;
1378;SDS011;683;48.738;9.226;2023-04-24T00:12:54;1.77;;;1.67;;
1378;SDS011;683;48.738;9.226;2023-04-24T00:15:22;1.30;;;1.20;;
1378;SDS011;683;48.738;9.226;2023-04-24T00:17:49;1.50;;;1.37;;
1378;SDS011;683;48.738;9.226;2023-04-24T00:20:18;1.30;;;1.20;;
1378;SDS011;683;48.738;9.226;2023-04-24T00:22:46;1.53;;;1.40;;
1378;SDS011;683;48.738;9.226;2023-04-24T00:25:14;1.37;;;1.23;;
1378;SDS011;683;48.738;9.226;2023-04-24T00:27:41;1.43;;;1.30;;
1378;SDS011;683;48.738;9.226;2023-04-24T00:30:09;2.40;;;1.10;;
1378;SDS011;683;48.738;9.226;2023-04-24T00:32:37;1.73;;;1.20;;
1378;SDS011;683;48.738;9.226;2023-04-24T00:35:05;1.80;;;1.57;;
1378;SDS011;683;48.738;9.226;2023-04-24T00:37:34;2.90;;;1.80;;
1378;SDS011;683;48.738;9.226;2023-04-24T00:40:02;2.03;;;1.20;;
1378;SDS011;683;48.738;9.226;2023-04-24T00:42:31;5.80;;;1.53;;
1378;SDS011;683;48.738;9.226;2023-04-24T00:44:59;1.20;;;1.10;;
1378;SDS011;683;48.738;9.226;2023-04-24T00:47:29;1.63;;;0.80;;
1378;SDS011;683;48.738;9.226;2023-04-24T00:49:57;1.40;;;1.03;;
1378;SDS011;683;48.738;9.226;2023-04-24T00:52:24;2.47;;;1.20;;
1378;SDS011;683;48.738;9.226;2023-04-24T00:54:55;2.30;;;1.30;;
1378;SDS011;683;48.738;9.226;2023-04-24T00:57:22;1.17;;;1.07;;
1378;SDS011;683;48.738;9.226;2023-04-24T00:59:50;3.33;;;0.87;;
1378;SDS011;683;48.738;9.226;2023-04-24T01:02:19;2.13;;;1.10;;
1378;SDS011;683;48.738;9.226;2023-04-24T01:04:47;2.60;;;1.10;;
1378;SDS011;683;48.738;9.226;2023-04-24T01:07:16;1.57;;;1.10;;
1378;SDS011;683;48.738;9.226;2023-04-24T01:09:46;1.10;;;1.00;;
1378;SDS011;683;48.738;9.226;2023-04-24T01:12:19;2.03;;;1.00;;
1378;SDS011;683;48.738;9.226;2023-04-24T01:14:46;1.30;;;1.20;;
1378;SDS011;683;48.738;9.226;2023-04-24T01:17:15;1.00;;;0.90;;
1378;SDS011;683;48.738;9.226;2023-04-24T01:19:42;1.53;;;0.80;;
1378;SDS011;683;48.738;9.226;2023-04-24T01:22:12;2.30;;;1.17;;
1378;SDS011;683;48.738;9.226;2023-04-24T01:24:40;2.03;;;1.17;;
1378;SDS011;683;48.738;9.226;2023-04-24T01:27:08;2.30;;;0.80;;
1378;SDS011;683;48.738;9.226;2023-04-24T01:29:37;2.10;;;0.80;;
1378;SDS011;683;48.738;9.226;2023-04-24T01:32:05;1.20;;;1.10;;
1378;SDS011;683;48.738;9.226;2023-04-24T01:34:32;2.97;;;1.30;;
1378;SDS011;683;48.738;9.226;2023-04-24T01:37:00;1.83;;;1.30;;
1378;SDS011;683;48.738;9.226;2023-04-24T01:39:30;2.40;;;1.07;;
1378;SDS011;683;48.738;9.226;2023-04-24T01:41:59;1.17;;;1.10;;
1378;SDS011;683;48.738;9.226;2023-04-24T01:44:27;1.40;;;1.30;;
1378;SDS011;683;48.738;9.226;2023-04-24T01:46:55;4.20;;;1.10;;
1378;SDS011;683;48.738;9.226;2023-04-24T01:49:23;2.30;;;1.20;;
1378;SDS011;683;48.738;9.226;2023-04-24T01:51:50;1.63;;;1.37;;
1378;SDS011;683;48.738;9.226;2023-04-24T01:54:18;1.43;;;1.10;;
1378;SDS011;683;48.738;9.226;2023-04-24T01:56:47;3.43;;;1.50;;
1378;SDS011;683;48.738;9.226;2023-04-24T01:59:15;0.93;;;0.93;;
1378;SDS011;683;48.738;9.226;2023-04-24T02:01:44;2.27;;;1.30;;
1378;SDS011;683;48.738;9.226;2023-04-24T02:04:11;1.40;;;1.30;;
1378;SDS011;683;48.738;9.226;2023-04-24T02:06:40;2.47;;;1.40;;
1378;SDS011;683;48.738;9.226;2023-04-24T02:09:07;2.93;;;1.27;;
1378;SDS011;683;48.738;9.226;2023-04-24T02:11:36;1.30;;;1.20;;
1378;SDS011;683;48.738;9.226;2023-04-24T02:14:05;2.67;;;1.13;;
1378;SDS011;683;48.738;9.226;2023-04-24T02:16:32;3.03;;;1.47;;
1378;SDS011;683;48.738;9.226;2023-04-24T02:19:01;2.60;;;1.43;;
1378;SDS011;683;48.738;9.226;2023-04-24T02:21:29;1.67;;;1.40;;
1378;SDS011;683;48.738;9.226;2023-04-24T02:23:57;1.90;;;1.13;;
1378;SDS011;683;48.738;9.226;2023-04-24T02:26:25;1.20;;;1.10;;
1378;SDS011;683;48.738;9.226;2023-04-24T02:28:52;3.90;;;1.33;;
1378;SDS011;683;48.738;9.226;2023-04-24T02:31:21;1.07;;;1.00;;
1378;SDS011;683;48.738;9.226;2023-04-24T02:33:48;3.67;;;1.77;;
1378;SDS011;683;48.738;9.226;2023-04-24T02:36:16;1.80;;;1.07;;
1378;SDS011;683;48.738;9.226;2023-04-24T02:38:43;0.80;;;0.80;;
1378;SDS011;683;48.738;9.226;2023-04-24T02:41:12;0.77;;;0.77;;
1378;SDS011;683;48.738;9.226;2023-04-24T02:43:41;1.90;;;1.17;;
1378;SDS011;683;48.738;9.226;2023-04-24T02:46:09;1.57;;;0.90;;
1378;SDS011;683;48.738;9.226;2023-04-24T02:48:38;1.17;;;1.07;;
1378;SDS011;683;48.738;9.226;2023-04-24T02:51:05;0.83;;;0.83;;
1378;SDS011;683;48.738;9.226;2023-04-24T02:53:33;0.87;;;0.87;;
1378;SDS011;683;48.738;9.226;2023-04-24T02:56:01;0.80;;;0.80;;
1378;SDS011;683;48.738;9.226;2023-04-24T02:58:29;1.43;;;0.97;;
1378;SDS011;683;48.738;9.226;2023-04-24T03:00:57;1.00;;;0.90;;
1378;SDS011;683;48.738;9.226;2023-04-24T03:03:24;1.03;;;0.93;;
1378;SDS011;683;48.738;9.226;2023-04-24T03:05:53;1.20;;;1.10;;
1378;SDS011;683;48.738;9.226;2023-04-24T03:08:21;1.20;;;1.00;;
1378;SDS011;683;48.738;9.226;2023-04-24T03:10:48;1.73;;;0.80;;
1378;SDS011;683;48.738;9.226;2023-04-24T03:13:16;0.87;;;0.70;;
1378;SDS011;683;48.738;9.226;2023-04-24T03:15:43;5.50;;;1.00;;
1378;SDS011;683;48.738;9.226;2023-04-24T03:18:12;1.10;;;1.00;;
1378;SDS011;683;48.738;9.226;2023-04-24T03:20:39;0.70;;;0.70;;
1378;SDS011;683;48.738;9.226;2023-04-24T03:23:08;1.10;;;1.00;;
1378;SDS011;683;48.738;9.226;2023-04-24T03:25:37;1.77;;;0.90;;
1378;SDS011;683;48.738;9.226;2023-04-24T03:28:04;1.30;;;1.10;;
1378;SDS011;683;48.738;9.226;2023-04-24T03:30:39;1.20;;;1.10;;
1378;SDS011;683;48.738;9.226;2023-04-24T03:33:08;1.10;;;1.00;;
1378;SDS011;683;48.738;9.226;2023-04-24T03:35:42;1.63;;;0.90;;
1378;SDS011;683;48.738;9.226;2023-04-24T03:38:12;3.67;;;1.20;;
1378;SDS011;683;48.738;9.226;2023-04-24T03:40:58;2.70;;;1.17;;
1378;SDS011;683;48.738;9.226;2023-04-24T03:43:46;1.13;;;0.80;;
1378;SDS011;683;48.738;9.226;2023-04-24T03:46:14;1.60;;;1.00;;
1378;SDS011;683;48.738;9.226;2023-04-24T03:48:49;2.40;;;1.40;;
1378;SDS011;683;48.738;9.226;2023-04-24T03:51:18;3.67;;;1.40;;
1378;SDS011;683;48.738;9.226;2023-04-24T03:53:50;1.40;;;1.30;;
1378;SDS011;683;48.738;9.226;2023-04-24T03:56:20;2.47;;;1.47;;
1378;SDS011;683;48.738;9.226;2023-04-24T03:58:47;1.50;;;0.90;;
1378;SDS011;683;48.738;9.226;2023-04-24T04:01:15;1.70;;;1.47;;
1378;SDS011;683;48.738;9.226;2023-04-24T04:03:51;1.50;;;1.10;;
1378;SDS011;683;48.738;9.226;2023-04-24T04:06:22;1.10;;;1.00;;
1378;SDS011;683;48.738;9.226;2023-04-24T04:08:53;1.77;;;1.50;;
1378;SDS011;683;48.738;9.226;2023-04-24T04:11:20;0.97;;;0.97;;
1378;SDS011;683;48.738;9.226;2023-04-24T04:13:47;1.23;;;1.13;;
1378;SDS011;683;48.738;9.226;2023-04-24T04:16:18;0.90;;;0.90;;
1378;SDS011;683;48.738;9.226;2023-04-24T04:18:48;1.17;;;1.10;;
1378;SDS011;683;48.738;9.226;2023-04-24T04:21:16;1.53;;;1.20;;
1378;SDS011;683;48.738;9.226;2023-04-24T04:23:44;0.87;;;0.80;;
1378;SDS011;683;48.738;9.226;2023-04-24T04:26:20;0.73;;;0.73;;
1378;SDS011;683;48.738;9.226;2023-04-24T04:29:05;1.33;;;0.97;;
1378;SDS011;683;48.738;9.226;2023-04-24T04:31:36;1.20;;;0.90;;
1378;SDS011;683;48.738;9.226;2023-04-24T04:34:09;0.80;;;0.80;;
1378;SDS011;683;48.738;9.226;2023-04-24T04:36:37;9.53;;;1.50;;
1378;SDS011;683;48.738;9.226;2023-04-24T04:39:23;3.90;;;1.63;;
1378;SDS011;683;48.738;9.226;2023-04-24T04:41:59;4.23;;;1.77;;
1378;SDS011;683;48.738;9.226;2023-04-24T04:44:34;2.13;;;2.03;;
1378;SDS011;683;48.738;9.226;2023-04-24T04:47:05;6.20;;;2.20;;
1378;SDS011;683;48.738;9.226;2023-04-24T04:49:36;3.30;;;2.80;;
1378;SDS011;683;48.738;9.226;2023-04-24T04:52:07;3.07;;;2.87;;
1378;SDS011;683;48.738;9.226;2023-04-24T04:54:34;3.03;;;2.80;;
1378;SDS011;683;48.738;9.226;2023-04-24T04:57:03;3.87;;;3.47;;
1378;SDS011;683;48.738;9.226;2023-04-24T04:59:31;2.90;;;2.70;;
1378;SDS011;683;48.738;9.226;2023-04-24T05:02:04;2.33;;;2.17;;
1378;SDS011;683;48.738;9.226;2023-04-24T05:04:31;3.27;;;2.97;;
1378;SDS011;683;48.738;9.226;2023-04-24T05:06:59;3.37;;;3.10;;
1378;SDS011;683;48.738;9.226;2023-04-24T05:09:29;3.43;;;3.10;;
1378;SDS011;683;48.738;9.226;2023-04-24T05:12:03;4.53;;;3.87;;
1378;SDS011;683;48.738;9.226;2023-04-24T05:14:35;3.63;;;3.33;;
1378;SDS011;683;48.738;9.226;2023-04-24T05:17:02;3.93;;;3.63;;
1378;SDS011;683;48.738;9.226;2023-04-24T05:19:31;3.60;;;3.30;;
1378;SDS011;683;48.738;9.226;2023-04-24T05:22:01;4.63;;;3.70;;
1378;SDS011;683;48.738;9.226;2023-04-24T05:24:33;3.67;;;3.37;;
1378;SDS011;683;48.738;9.226;2023-04-24T05:27:10;4.30;;;3.90;;
1378;SDS011;683;48.738;9.226;2023-04-24T05:29:39;3.97;;;3.67;;
1378;SDS011;683;48.738;9.226;2023-04-24T05:32:07;4.13;;;3.10;;
1378;SDS011;683;48.738;9.226;2023-04-24T05:34:35;5.67;;;3.63;;
1378;SDS011;683;48.738;9.226;2023-04-24T05:37:02;4.30;;;4.00;;
1378;SDS011;683;48.738;9.226;2023-04-24T05:39:33;4.60;;;3.97;;
1378;SDS011;683;48.738;9.226;2023-04-24T05:42:01;4.60;;;4.20;;
1378;SDS011;683;48.738;9.226;2023-04-24T05:44:31;5.27;;;4.70;;
1378;SDS011;683;48.738;9.226;2023-04-24T05:46:59;3.97;;;3.60;;
1378;SDS011;683;48.738;9.226;2023-04-24T05:49:27;5.90;;;4.60;;
1378;SDS011;683;48.738;9.226;2023-04-24T05:51:55;4.40;;;4.00;;
1378;SDS011;683;48.738;9.226;2023-04-24T05:54:24;5.47;;;4.97;;
1378;SDS011;683;48.738;9.226;2023-04-24T05:56:52;4.30;;;3.90;;
1378;SDS011;683;48.738;9.226;2023-04-24T05:59:31;4.30;;;3.77;;
1378;SDS011;683;48.738;9.226;2023-04-24T06:01:59;4.90;;;4.43;;
1378;SDS011;683;48.738;9.226;2023-04-24T06:04:27;3.97;;;3.67;;
1378;SDS011;683;48.738;9.226;2023-04-24T06:06:57;5.10;;;4.70;;
1378;SDS011;683;48.738;9.226;2023-04-24T06:09:25;6.43;;;4.37;;
1378;SDS011;683;48.738;9.226;2023-04-24T06:11:53;4.07;;;3.67;;
1378;SDS011;683;48.738;9.226;2023-04-24T06:14:27;4.67;;;3.77;;
1378;SDS011;683;48.738;9.226;2023-04-24T06:17:31;4.50;;;4.10;;
1378;SDS011;683;48.738;9.226;2023-04-24T06:19:59;3.97;;;3.57;;
1378;SDS011;683;48.738;9.226;2023-04-24T06:22:26;5.97;;;4.00;;
1378;SDS011;683;48.738;9.226;2023-04-24T06:24:55;4.47;;;4.07;;
1378;SDS011;683;48.738;9.226;2023-04-24T06:27:24;4.20;;;3.80;;
1378;SDS011;683;48.738;9.226;2023-04-24T06:29:52;4.83;;;3.90;;
1378;SDS011;683;48.738;9.226;2023-04-24T06:32:21;9.70;;;3.80;;
1378;SDS011;683;48.738;9.226;2023-04-24T06:34:50;5.63;;;3.30;;
1378;SDS011;683;48.738;9.226;2023-04-24T06:37:19;4.57;;;3.30;;
1378;SDS011;683;48.738;9.226;2023-04-24T06:39:47;4.13;;;3.73;;
1378;SDS011;683;48.738;9.226;2023-04-24T06:42:14;3.10;;;2.90;;
1378;SDS011;683;48.738;9.226;2023-04-24T06:44:43;2.70;;;2.50;;
1378;SDS011;683;48.738;9.226;2023-04-24T06:47:10;3.43;;;3.13;;
1378;SDS011;683;48.738;9.226;2023-04-24T06:49:39;3.13;;;2.90;;
1378;SDS011;683;48.738;9.226;2023-04-24T06:52:08;2.90;;;2.70;;
1378;SDS011;683;48.738;9.226;2023-04-24T06:54:36;3.10;;;2.90;;
1378;SDS011;683;48.738;9.226;2023-04-24T06:57:03;3.40;;;3.10;;
1378;SDS011;683;48.738;9.226;2023-04-24T06:59:31;3.03;;;2.83;;
1378;SDS011;683;48.738;9.226;2023-04-24T07:01:58;2.97;;;2.77;;
1378;SDS011;683;48.738;9.226;2023-04-24T07:04:26;3.67;;;3.37;;
1378;SDS011;683;48.738;9.226;2023-04-24T07:06:53;2.53;;;2.33;;
1378;SDS011;683;48.738;9.226;2023-04-24T07:09:25;2.63;;;2.30;;
1378;SDS011;683;48.738;9.226;2023-04-24T07:11:52;2.83;;;2.63;;
1378;SDS011;683;48.738;9.226;2023-04-24T07:14:22;1.93;;;1.83;;
1378;SDS011;683;48.738;9.226;2023-04-24T07:16:49;2.87;;;2.50;;
1378;SDS011;683;48.738;9.226;2023-04-24T07:19:17;2.30;;;2.10;;
1378;SDS011;683;48.738;9.226;2023-04-24T07:21:44;2.03;;;1.90;;
1378;SDS011;683;48.738;9.226;2023-04-24T07:24:12;2.53;;;2.33;;
1378;SDS011;683;48.738;9.226;2023-04-24T07:26:40;2.33;;;2.23;;
1378;SDS011;683;48.738;9.226;2023-04-24T07:29:08;3.53;;;1.87;;
1378;SDS011;683;48.738;9.226;2023-04-24T07:31:36;2.00;;;1.90;;
1378;SDS011;683;48.738;9.226;2023-04-24T07:34:03;9.40;;;2.10;;
1378;SDS011;683;48.738;9.226;2023-04-24T07:36:31;1.70;;;1.60;;
1378;SDS011;683;48.738;9.226;2023-04-24T07:38:58;4.80;;;2.50;;
1378;SDS011;683;48.738;9.226;2023-04-24T07:41:26;2.00;;;1.70;;
1378;SDS011;683;48.738;9.226;2023-04-24T07:43:55;2.03;;;1.90;;
1378;SDS011;683;48.738;9.226;2023-04-24T07:46:23;2.03;;;1.93;;
1378;SDS011;683;48.738;9.226;2023-04-24T07:48:50;3.77;;;2.10;;
1378;SDS011;683;48.738;9.226;2023-04-24T07:51:18;2.50;;;2.17;;
1378;SDS011;683;48.738;9.226;2023-04-24T07:53:46;1.10;;;1.10;;
1378;SDS011;683;48.738;9.226;2023-04-24T07:56:13;1.90;;;1.37;;
1378;SDS011;683;48.738;9.226;2023-04-24T07:58:41;1.60;;;1.50;;
1378;SDS011;683;48.738;9.226;2023-04-24T08:01:10;4.87;;;2.30;;
1378;SDS011;683;48.738;9.226;2023-04-24T08:03:37;1.97;;;1.87;;
1378;SDS011;683;48.738;9.226;2023-04-24T08:06:05;1.60;;;1.50;;
1378;SDS011;683;48.738;9.226;2023-04-24T08:08:32;1.97;;;1.77;;
1378;SDS011;683;48.738;9.226;2023-04-24T08:11:00;1.73;;;1.53;;
1378;SDS011;683;48.738;9.226;2023-04-24T08:13:28;2.40;;;1.90;;
1378;SDS011;683;48.738;9.226;2023-04-24T08:15:56;2.70;;;1.77;;
1378;SDS011;683;48.738;9.226;2023-04-24T08:18:25;1.53;;;1.43;;
1378;SDS011;683;48.738;9.226;2023-04-24T08:20:53;1.57;;;1.47;;
1378;SDS011;683;48.738;9.226;2023-04-24T08:23:20;1.60;;;1.50;;
1378;SDS011;683;48.738;9.226;2023-04-24T08:25:48;2.23;;;1.13;;
1378;SDS011;683;48.738;9.226;2023-04-24T08:28:15;1.90;;;1.70;;
1378;SDS011;683;48.738;9.226;2023-04-24T08:30:45;1.97;;;1.87;;
1378;SDS011;683;48.738;9.226;2023-04-24T08:33:13;9.40;;;3.17;;
1378;SDS011;683;48.738;9.226;2023-04-24T08:35:42;3.83;;;1.73;;
1378;SDS011;683;48.738;9.226;2023-04-24T08:38:09;1.33;;;1.23;;
1378;SDS011;683;48.738;9.226;2023-04-24T08:40:37;2.53;;;1.33;;
1378;SDS011;683;48.738;9.226;2023-04-24T08:43:05;4.03;;;2.50;;
1378;SDS011;683;48.738;9.226;2023-04-24T08:45:33;1.80;;;1.70;;
1378;SDS011;683;48.738;9.226;2023-04-24T08:48:00;1.70;;;1.60;;
1378;SDS011;683;48.738;9.226;2023-04-24T08:50:31;3.33;;;1.63;;
1378;SDS011;683;48.738;9.226;2023-04-24T08:53:00;2.63;;;1.70;;
1378;SDS011;683;48.738;9.226;2023-04-24T08:55:28;2.20;;;2.00;;
1378;SDS011;683;48.738;9.226;2023-04-24T08:57:58;5.97;;;2.17;;
1378;SDS011;683;48.738;9.226;2023-04-24T09:00:26;3.47;;;2.03;;
1378;SDS011;683;48.738;9.226;2023-04-24T09:02:54;2.10;;;1.60;;
1378;SDS011;683;48.738;9.226;2023-04-24T09:05:22;5.23;;;1.83;;
1378;SDS011;683;48.738;9.226;2023-04-24T09:07:53;1.93;;;1.57;;
1378;SDS011;683;48.738;9.226;2023-04-24T09:10:23;1.63;;;1.53;;
1378;SDS011;683;48.738;9.226;2023-04-24T09:12:51;4.60;;;2.10;;
1378;SDS011;683;48.738;9.226;2023-04-24T09:15:20;2.03;;;1.80;;
1378;SDS011;683;48.738;9.226;2023-04-24T09:17:48;1.80;;;1.70;;
1378;SDS011;683;48.738;9.226;2023-04-24T09:20:16;4.47;;;2.93;;
1378;SDS011;683;48.738;9.226;2023-04-24T09:22:43;1.30;;;1.10;;
1378;SDS011;683;48.738;9.226;2023-04-24T09:25:12;1.80;;;1.70;;
1378;SDS011;683;48.738;9.226;2023-04-24T09:27:44;4.27;;;1.80;;
1378;SDS011;683;48.738;9.226;2023-04-24T09:30:12;2.03;;;1.93;;
1378;SDS011;683;48.738;9.226;2023-04-24T09:32:41;1.80;;;1.70;;
1378;SDS011;683;48.738;9.226;2023-04-24T09:35:10;1.70;;;1.60;;
1378;SDS011;683;48.738;9.226;2023-04-24T09:37:39;3.00;;;2.13;;
1378;SDS011;683;48.738;9.226;2023-04-24T09:40:08;1.73;;;1.50;;
1378;SDS011;683;48.738;9.226;2023-04-24T09:42:40;1.83;;;1.60;;
1378;SDS011;683;48.738;9.226;2023-04-24T09:45:12;2.93;;;1.57;;
1378;SDS011;683;48.738;9.226;2023-04-24T09:47:40;1.20;;;1.10;;
1378;SDS011;683;48.738;9.226;2023-04-24T09:50:12;1.57;;;1.40;;
1378;SDS011;683;48.738;9.226;2023-04-24T09:52:41;2.10;;;1.03;;
1378;SDS011;683;48.738;9.226;2023-04-24T09:55:11;2.93;;;1.20;;
1378;SDS011;683;48.738;9.226;2023-04-24T09:57:53;1.50;;;1.13;;
1378;SDS011;683;48.738;9.226;2023-04-24T10:00:26;1.77;;;1.47;;
1378;SDS011;683;48.738;9.226;2023-04-24T10:02:54;2.10;;;1.10;;
1378;SDS011;683;48.738;9.226;2023-04-24T10:05:23;1.27;;;1.17;;
1378;SDS011;683;48.738;9.226;2023-04-24T10:07:51;0.87;;;0.87;;
1378;SDS011;683;48.738;9.226;2023-04-24T10:10:22;1.73;;;1.63;;
1378;SDS011;683;48.738;9.226;2023-04-24T10:12:50;1.20;;;1.00;;
1378;SDS011;683;48.738;9.226;2023-04-24T10:15:20;3.97;;;1.23;;
1378;SDS011;683;48.738;9.226;2023-04-24T10:17:48;1.30;;;1.20;;
1378;SDS011;683;48.738;9.226;2023-04-24T10:20:18;1.93;;;1.17;;
1378;SDS011;683;48.738;9.226;2023-04-24T10:22:47;1.30;;;1.20;;
1378;SDS011;683;48.738;9.226;2023-04-24T10:25:19;2.17;;;1.20;;
1378;SDS011;683;48.738;9.226;2023-04-24T10:27:49;5.03;;;1.50;;
1378;SDS011;683;48.738;9.226;2023-04-24T10:30:18;1.40;;;1.30;;
1378;SDS011;683;48.738;9.226;2023-04-24T10:32:47;1.97;;;1.23;;
1378;SDS011;683;48.738;9.226;2023-04-24T10:35:15;1.30;;;1.20;;
1378;SDS011;683;48.738;9.226;2023-04-24T10:37:45;2.07;;;1.30;;
1378;SDS011;683;48.738;9.226;2023-04-24T10:40:17;3.93;;;1.20;;
1378;SDS011;683;48.738;9.226;2023-04-24T10:42:47;1.33;;;1.23;;
1378;SDS011;683;48.738;9.226;2023-04-24T10:45:18;1.47;;;1.20;;
1378;SDS011;683;48.738;9.226;2023-04-24T10:47:58;1.60;;;1.50;;
1378;SDS011;683;48.738;9.226;2023-04-24T10:50:26;2.73;;;1.00;;
1378;SDS011;683;48.738;9.226;2023-04-24T10:53:04;2.00;;;1.30;;
1378;SDS011;683;48.738;9.226;2023-04-24T10:55:40;1.67;;;1.40;;
1378;SDS011;683;48.738;9.226;2023-04-24T10:58:09;1.97;;;1.30;;
1378;SDS011;683;48.738;9.226;2023-04-24T11:00:37;1.87;;;1.00;;
1378;SDS011;683;48.738;9.226;2023-04-24T11:03:07;1.30;;;1.20;;
1378;SDS011;683;48.738;9.226;2023-04-24T11:05:50;1.77;;;1.17;;
1378;SDS011;683;48.738;9.226;2023-04-24T11:08:22;1.53;;;1.27;;
1378;SDS011;683;48.738;9.226;2023-04-24T11:11:02;3.30;;;1.27;;
1378;SDS011;683;48.738;9.226;2023-04-24T11:16:28;1.47;;;1.10;;
1378;SDS011;683;48.738;9.226;2023-04-24T11:19:04;1.20;;;1.00;;
1378;SDS011;683;48.738;9.226;2023-04-24T11:21:38;1.93;;;1.43;;
1378;SDS011;683;48.738;9.226;2023-04-24T11:24:26;2.20;;;1.20;;
1378;SDS011;683;48.738;9.226;2023-04-24T11:26:57;2.13;;;1.30;;
1378;SDS011;683;48.738;9.226;2023-04-24T11:29:39;0.90;;;0.90;;
1378;SDS011;683;48.738;9.226;2023-04-24T11:32:15;1.70;;;1.20;;
1378;SDS011;683;48.738;9.226;2023-04-24T11:34:47;1.43;;;1.00;;
1378;SDS011;683;48.738;9.226;2023-04-24T11:37:15;1.40;;;1.30;;
1378;SDS011;683;48.738;9.226;2023-04-24T11:39:42;1.70;;;1.60;;
1378;SDS011;683;48.738;9.226;2023-04-24T11:42:10;1.90;;;1.70;;
1378;SDS011;683;48.738;9.226;2023-04-24T11:44:40;2.53;;;1.67;;
1378;SDS011;683;48.738;9.226;2023-04-24T11:47:09;1.70;;;1.60;;
1378;SDS011;683;48.738;9.226;2023-04-24T11:49:36;2.13;;;1.40;;
1378;SDS011;683;48.738;9.226;2023-04-24T11:52:05;2.70;;;1.00;;
1378;SDS011;683;48.738;9.226;2023-04-24T11:54:33;1.93;;;1.77;;
1378;SDS011;683;48.738;9.226;2023-04-24T11:57:03;1.80;;;1.70;;
1378;SDS011;683;48.738;9.226;2023-04-24T11:59:35;5.53;;;1.60;;
1378;SDS011;683;48.738;9.226;2023-04-24T12:02:03;1.50;;;1.40;;
1378;SDS011;683;48.738;9.226;2023-04-24T12:04:38;1.43;;;1.33;;
1378;SDS011;683;48.738;9.226;2023-04-24T12:07:08;2.00;;;1.90;;
1378;SDS011;683;48.738;9.226;2023-04-24T12:09:42;1.20;;;1.10;;
1378;SDS011;683;48.738;9.226;2023-04-24T12:12:11;1.67;;;1.57;;
1378;SDS011;683;48.738;9.226;2023-04-24T12:14:42;1.60;;;1.33;;
1378;SDS011;683;48.738;9.226;2023-04-24T12:17:16;1.37;;;1.27;;
1378;SDS011;683;48.738;9.226;2023-04-24T12:19:45;1.13;;;1.10;;
1378;SDS011;683;48.738;9.226;2023-04-24T12:22:15;1.27;;;1.23;;
1378;SDS011;683;48.738;9.226;2023-04-24T12:24:55;1.97;;;1.53;;
1378;SDS011;683;48.738;9.226;2023-04-24T12:27:29;1.60;;;1.50;;
1378;SDS011;683;48.738;9.226;2023-04-24T12:29:58;2.17;;;1.70;;
1378;SDS011;683;48.738;9.226;2023-04-24T12:32:28;4.30;;;1.40;;
1378;SDS011;683;48.738;9.226;2023-04-24T12:34:55;1.90;;;1.70;;
1378;SDS011;683;48.738;9.226;2023-04-24T12:37:25;1.90;;;1.20;;
1378;SDS011;683;48.738;9.226;2023-04-24T12:39:59;2.40;;;1.83;;
1378;SDS011;683;48.738;9.226;2023-04-24T12:42:28;1.63;;;1.53;;
1378;SDS011;683;48.738;9.226;2023-04-24T12:44:57;2.90;;;1.53;;
1378;SDS011;683;48.738;9.226;2023-04-24T12:47:26;1.70;;;1.60;;
1378;SDS011;683;48.738;9.226;2023-04-24T12:49:54;1.50;;;1.40;;
1378;SDS011;683;48.738;9.226;2023-04-24T12:52:22;1.80;;;1.70;;
1378;SDS011;683;48.738;9.226;2023-04-24T12:54:54;3.13;;;1.70;;
1378;SDS011;683;48.738;9.226;2023-04-24T12:57:22;1.50;;;1.40;;
1378;SDS011;683;48.738;9.226;2023-04-24T12:59:50;1.63;;;1.53;;
1378;SDS011;683;48.738;9.226;2023-04-24T13:02:18;1.60;;;1.50;;
1378;SDS011;683;48.738;9.226;2023-04-24T13:04:47;2.10;;;1.40;;
1378;SDS011;683;48.738;9.226;2023-04-24T13:07:15;1.70;;;1.60;;
1378;SDS011;683;48.738;9.226;2023-04-24T13:09:43;1.57;;;1.20;;
1378;SDS011;683;48.738;9.226;2023-04-24T13:12:13;1.80;;;1.30;;
1378;SDS011;683;48.738;9.226;2023-04-24T13:14:41;1.63;;;1.40;;
1378;SDS011;683;48.738;9.226;2023-04-24T13:17:08;1.93;;;1.83;;
1378;SDS011;683;48.738;9.226;2023-04-24T13:19:37;1.80;;;1.70;;
1378;SDS011;683;48.738;9.226;2023-04-24T13:22:06;2.00;;;1.90;;
1378;SDS011;683;48.738;9.226;2023-04-24T13:24:37;2.00;;;1.60;;
1378;SDS011;683;48.738;9.226;2023-04-24T13:27:06;2.23;;;2.07;;
1378;SDS011;683;48.738;9.226;2023-04-24T13:29:35;1.43;;;1.33;;
1378;SDS011;683;48.738;9.226;2023-04-24T13:32:03;1.90;;;1.70;;
1378;SDS011;683;48.738;9.226;2023-04-24T13:34:31;1.60;;;1.50;;
1378;SDS011;683;48.738;9.226;2023-04-24T13:37:00;1.47;;;1.37;;
1378;SDS011;683;48.738;9.226;2023-04-24T13:39:29;1.80;;;1.70;;
1378;SDS011;683;48.738;9.226;2023-04-24T13:41:56;1.60;;;1.50;;
1378;SDS011;683;48.738;9.226;2023-04-24T13:44:24;2.10;;;1.90;;
1378;SDS011;683;48.738;9.226;2023-04-24T13:46:54;1.97;;;1.70;;
1378;SDS011;683;48.738;9.226;2023-04-24T13:49:23;2.27;;;1.30;;
1378;SDS011;683;48.738;9.226;2023-04-24T13:51:51;3.20;;;1.60;;
1378;SDS011;683;48.738;9.226;2023-04-24T13:54:19;2.20;;;2.07;;
1378;SDS011;683;48.738;9.226;2023-04-24T13:56:48;1.60;;;1.50;;
1378;SDS011;683;48.738;9.226;2023-04-24T13:59:16;1.93;;;1.83;;
1378;SDS011;683;48.738;9.226;2023-04-24T14:01:43;1.17;;;1.10;;
1378;SDS011;683;48.738;9.226;2023-04-24T14:04:13;1.53;;;1.43;;
1378;SDS011;683;48.738;9.226;2023-04-24T14:06:40;2.87;;;2.13;;
1378;SDS011;683;48.738;9.226;2023-04-24T14:09:07;2.80;;;2.50;;
1378;SDS011;683;48.738;9.226;2023-04-24T14:11:35;1.80;;;1.70;;
1378;SDS011;683;48.738;9.226;2023-04-24T14:14:03;1.60;;;1.50;;
1378;SDS011;683;48.738;9.226;2023-04-24T14:16:30;2.53;;;2.00;;
1378;SDS011;683;48.738;9.226;2023-04-24T14:18:58;2.00;;;1.60;;
1378;SDS011;683;48.738;9.226;2023-04-24T14:21:27;2.20;;;2.00;;
1378;SDS011;683;48.738;9.226;2023-04-24T14:23:55;4.40;;;2.50;;
1378;SDS011;683;48.738;9.226;2023-04-24T14:26:24;3.63;;;2.07;;
1378;SDS011;683;48.738;9.226;2023-04-24T14:29:04;1.43;;;1.33;;
1378;SDS011;683;48.738;9.226;2023-04-24T14:31:31;1.90;;;1.73;;
1378;SDS011;683;48.738;9.226;2023-04-24T14:33:59;1.80;;;1.70;;
1378;SDS011;683;48.738;9.226;2023-04-24T14:36:28;3.10;;;2.20;;
1378;SDS011;683;48.738;9.226;2023-04-24T14:38:55;2.70;;;2.40;;
1378;SDS011;683;48.738;9.226;2023-04-24T14:41:23;2.67;;;2.47;;
1378;SDS011;683;48.738;9.226;2023-04-24T14:43:50;3.50;;;2.57;;
1378;SDS011;683;48.738;9.226;2023-04-24T14:46:18;1.70;;;1.60;;
1378;SDS011;683;48.738;9.226;2023-04-24T14:48:46;2.37;;;1.80;;
1378;SDS011;683;48.738;9.226;2023-04-24T14:51:14;2.83;;;1.73;;
1378;SDS011;683;48.738;9.226;2023-04-24T14:53:42;2.90;;;1.80;;
1378;SDS011;683;48.738;9.226;2023-04-24T14:56:12;2.03;;;1.83;;
1378;SDS011;683;48.738;9.226;2023-04-24T14:58:39;2.23;;;1.30;;
1378;SDS011;683;48.738;9.226;2023-04-24T15:01:07;3.47;;;1.90;;
1378;SDS011;683;48.738;9.226;2023-04-24T15:03:34;1.83;;;1.73;;
1378;SDS011;683;48.738;9.226;2023-04-24T15:06:02;2.17;;;1.97;;
1378;SDS011;683;48.738;9.226;2023-04-24T15:08:30;1.90;;;1.80;;
1378;SDS011;683;48.738;9.226;2023-04-24T15:10:59;1.63;;;1.53;;
1378;SDS011;683;48.738;9.226;2023-04-24T15:13:27;2.03;;;1.70;;
1378;SDS011;683;48.738;9.226;2023-04-24T15:15:55;1.80;;;1.70;;
1378;SDS011;683;48.738;9.226;2023-04-24T15:18:22;3.60;;;1.90;;
1378;SDS011;683;48.738;9.226;2023-04-24T15:20:50;2.53;;;2.30;;
1378;SDS011;683;48.738;9.226;2023-04-24T15:23:17;3.83;;;2.17;;
1378;SDS011;683;48.738;9.226;2023-04-24T15:25:45;5.73;;;2.67;;
1378;SDS011;683;48.738;9.226;2023-04-24T15:28:14;2.17;;;2.03;;
1378;SDS011;683;48.738;9.226;2023-04-24T15:30:43;1.80;;;1.70;;
1378;SDS011;683;48.738;9.226;2023-04-24T15:33:10;2.87;;;2.17;;
1378;SDS011;683;48.738;9.226;2023-04-24T15:35:38;2.00;;;1.90;;
1378;SDS011;683;48.738;9.226;2023-04-24T15:38:05;2.10;;;1.87;;
1378;SDS011;683;48.738;9.226;2023-04-24T15:40:33;2.03;;;1.80;;
1378;SDS011;683;48.738;9.226;2023-04-24T15:43:00;1.93;;;1.70;;
1378;SDS011;683;48.738;9.226;2023-04-24T15:45:29;1.97;;;1.87;;